METAR AND TAF INFORMATION
METAR FOR UARR
ADDS - METARS form results

(2124 UTC 26 March 2019)
Data provider http://aviationweather.gov/metar/data/
 
METAR text: UARR 262100Z 16007MPS CAVOK 01/M02 Q1019 R22/CLRD70 NOSIG RMK QFE761/1014
Conditions at: UARR (URALSK , KZ) observed 2100 UTC 26 March 2019
Temperature: 1.0°C (34°F)
Dewpoint: -2.0°C (28°F) [RH = 80%]
Pressure (altimeter): 30.09 inches Hg (1019.0 mb)
Winds: from the SSE (160 degrees) at 16 MPH (14 knots; 7.2 m/s)
Visibility: 6 or more miles (10+ km)
Ceiling: ceiling and visibility are OK
Clouds: unknown
Weather: no significant weather observed at this time

Forecast for: UARR (URALSK , KZ)
Text: TAF UARR 262000Z 2621/2706 16006G11MPS 3100 BR BKN011
Forecast period: 2100 UTC 26 March 2019 to 0600 UTC 27 March 2019
Forecast type: FROM: standard forecast or significant change
Winds: from the SSE (160 degrees) at 14 MPH (12 knots; 6.2 m/s)
gusting to 24 MPH (21 knots; 10.8 m/s)
Visibility: 1.93 miles (3.11 km)
Ceiling: 1100 feet AGL
Clouds: broken clouds at 1100 feet AGL
Weather: BR  (mist)

 AIRPORT MAP

 RUNWAY INFORMATION

 AIRPORT FREQUENCIES
Type TWR Name TWR Frequency 119.7 MHZ

 AIRPORT NEAR NAVIGATION AIDS
Type NDB Name Uralsk Frequency 442 KHZ
Type NDB Name Uralsk Frequency 442 KHZ
Type VOR-DME Name Uralsk Frequency 114200 KHZ



2018 Air Astana Virtual Airline